Time;durP1;ratioP1;P1;durP2;ratioP2;P2;SDS_P1;SDS_P2;PMS_P1;PMS_P2;Temp;Humidity;BMP_temperature;BMP_pressure;BME280_temperature;BME280_humidity;BME280_pressure;Samples;Min_cycle;Max_cycle;Signal;HPM_P1;HPM_P2
2022/01/30 00:00:55;;;;;;;9.23;2.50;;;6.40;99.90;;;;;;5076484;28;20140;-68
2022/01/30 00:03:22;;;;;;;5.97;2.28;;;6.30;99.90;;;;;;5075696;28;20092;-68
2022/01/30 00:05:49;;;;;;;7.75;2.22;;;6.40;99.90;;;;;;5075407;28;20080;-69
2022/01/30 00:08:17;;;;;;;8.27;2.40;;;6.60;99.90;;;;;;5075430;28;20131;-69
2022/01/30 00:10:46;;;;;;;8.20;2.22;;;6.60;99.90;;;;;;5075493;28;20132;-68
2022/01/30 00:13:16;;;;;;;11.85;2.65;;;6.60;99.90;;;;;;5075258;28;20056;-69
2022/01/30 00:15:47;;;;;;;13.75;2.70;;;6.60;99.90;;;;;;5075105;28;20059;-68
2022/01/30 00:18:28;;;;;;;15.52;2.92;;;6.70;99.90;;;;;;5075195;28;20060;-68
2022/01/30 00:21:08;;;;;;;10.18;1.95;;;6.70;99.90;;;;;;5075673;28;20078;-69
2022/01/30 00:23:43;;;;;;;15.52;2.80;;;6.80;99.90;;;;;;5075389;28;20096;-69
2022/01/30 00:26:13;;;;;;;13.05;3.00;;;6.60;99.90;;;;;;5075323;28;20428;-69
2022/01/30 00:28:40;;;;;;;8.05;2.25;;;6.50;99.90;;;;;;5075145;28;20083;-68
2022/01/30 00:31:08;;;;;;;9.32;2.63;;;6.60;99.90;;;;;;5075137;28;20059;-69
2022/01/30 00:33:35;;;;;;;11.18;2.83;;;6.40;99.90;;;;;;5074176;28;20056;-68
2022/01/30 00:36:02;;;;;;;13.27;2.75;;;6.60;99.90;;;;;;5073868;28;20049;-68
2022/01/30 00:38:29;;;;;;;11.73;2.40;;;6.30;99.90;;;;;;5074718;28;20052;-67
2022/01/30 00:40:58;;;;;;;12.48;2.40;;;6.30;99.90;;;;;;5074638;28;20056;-68
2022/01/30 00:43:25;;;;;;;12.43;2.83;;;6.60;99.90;;;;;;5074500;28;20151;-68
2022/01/30 00:45:51;;;;;;;14.05;2.25;;;6.30;99.90;;;;;;5073762;28;20083;-68
2022/01/30 00:48:19;;;;;;;10.60;2.90;;;6.30;99.90;;;;;;5074270;28;20092;-68
2022/01/30 00:50:46;;;;;;;12.80;2.47;;;6.40;99.90;;;;;;5074091;28;20131;-67
2022/01/30 00:53:14;;;;;;;11.38;2.38;;;6.30;99.90;;;;;;5073890;28;20088;-67
2022/01/30 00:55:41;;;;;;;11.88;3.28;;;6.30;99.90;;;;;;5073570;28;20419;-67
2022/01/30 00:58:10;;;;;;;12.15;2.45;;;6.40;99.90;;;;;;5074040;28;20053;-68
2022/01/30 01:00:37;;;;;;;8.05;2.35;;;6.10;99.90;;;;;;5073687;28;20056;-67
2022/01/30 01:03:05;;;;;;;9.95;2.20;;;6.40;99.90;;;;;;5073607;28;20056;-68
2022/01/30 01:05:34;;;;;;;12.32;3.65;;;6.30;99.90;;;;;;5073410;28;20139;-68
2022/01/30 01:08:09;;;;;;;8.25;2.13;;;6.40;99.90;;;;;;5073823;28;20052;-69
2022/01/30 01:10:41;;;;;;;8.35;2.38;;;6.40;99.90;;;;;;5073526;28;20139;-68
2022/01/30 01:24:08;;;;;;;10.48;3.05;;;6.30;99.90;;;;;;5073219;28;20056;-67
2022/01/30 01:26:38;;;;;;;15.63;2.35;;;6.00;99.90;;;;;;5073284;28;20050;-68
2022/01/30 01:29:07;;;;;;;15.68;2.40;;;5.90;99.90;;;;;;5073273;28;20101;-68
2022/01/30 01:31:35;;;;;;;12.23;3.22;;;6.10;99.90;;;;;;5073182;28;20049;-68
2022/01/30 01:34:19;;;;;;;9.00;2.20;;;6.00;99.90;;;;;;5073207;28;20135;-68
2022/01/30 01:36:46;;;;;;;13.02;2.60;;;6.10;99.90;;;;;;5073191;28;20044;-68
2022/01/30 01:39:13;;;;;;;14.00;2.65;;;6.10;99.90;;;;;;5073452;28;20079;-68
2022/01/30 01:41:40;;;;;;;17.63;3.33;;;6.10;99.90;;;;;;5073053;28;20113;-69
2022/01/30 01:44:15;;;;;;;13.20;3.45;;;5.90;99.90;;;;;;5072914;28;20055;-69
2022/01/30 01:46:45;;;;;;;20.45;2.85;;;6.20;99.90;;;;;;5072225;28;20056;-69
2022/01/30 01:49:19;;;;;;;11.75;3.53;;;6.00;99.90;;;;;;5072924;28;20097;-69
2022/01/30 01:51:50;;;;;;;10.65;2.75;;;6.00;99.90;;;;;;5072945;28;20064;-68
2022/01/30 01:54:17;;;;;;;15.38;3.38;;;6.10;99.90;;;;;;5072972;28;20060;-69
2022/01/30 01:56:43;;;;;;;15.40;3.33;;;6.00;99.90;;;;;;5072945;28;20108;-68
2022/01/30 01:59:10;;;;;;;8.98;2.72;;;6.00;99.90;;;;;;5072735;28;20040;-69
2022/01/30 02:01:37;;;;;;;19.50;3.13;;;6.10;99.90;;;;;;5072634;28;20061;-69
2022/01/30 02:04:06;;;;;;;16.65;2.72;;;6.10;99.90;;;;;;5072512;28;20127;-68
2022/01/30 02:06:33;;;;;;;11.48;2.45;;;6.10;99.90;;;;;;5072399;28;20479;-68
2022/01/30 02:09:10;;;;;;;13.57;2.60;;;6.30;99.90;;;;;;5072431;28;20539;-68
2022/01/30 02:11:41;;;;;;;15.85;2.47;;;6.20;99.90;;;;;;5072397;28;20135;-68
2022/01/30 02:14:31;;;;;;;18.52;3.05;;;6.30;99.90;;;;;;5072579;28;20070;-68
2022/01/30 02:25:37;;;;;;;14.10;2.83;;;6.30;99.90;;;;;;5010347;28;20049;-69
2022/01/30 02:28:09;;;;;;;12.73;2.65;;;6.30;99.90;;;;;;5062465;28;20061;-69
2022/01/30 02:30:39;;;;;;;21.77;3.65;;;6.50;99.90;;;;;;5071977;28;20137;-69
2022/01/30 02:33:06;;;;;;;13.63;2.13;;;6.40;99.90;;;;;;5072265;28;20113;-69
2022/01/30 02:35:33;;;;;;;11.40;2.00;;;6.60;99.90;;;;;;5072192;28;20133;-68
2022/01/30 02:38:02;;;;;;;11.73;2.30;;;6.70;99.90;;;;;;5072027;28;20131;-68
2022/01/30 02:40:31;;;;;;;10.35;2.63;;;6.60;99.90;;;;;;5072056;28;20126;-68
2022/01/30 02:42:58;;;;;;;10.00;2.10;;;6.70;99.90;;;;;;5071451;28;20500;-69
2022/01/30 02:45:29;;;;;;;8.02;2.10;;;6.70;99.90;;;;;;5071645;28;20130;-69
2022/01/30 02:48:11;;;;;;;10.13;2.25;;;6.70;99.90;;;;;;5072052;28;20056;-70
2022/01/30 02:50:49;;;;;;;10.88;2.17;;;7.00;99.90;;;;;;5072145;28;20048;-69
2022/01/30 02:53:18;;;;;;;13.13;2.10;;;6.80;99.90;;;;;;5072217;28;20056;-70
2022/01/30 02:55:45;;;;;;;13.05;2.45;;;6.80;99.90;;;;;;5071783;28;20048;-70
2022/01/30 02:58:12;;;;;;;13.20;2.55;;;6.70;99.90;;;;;;5071412;28;20131;-69
2022/01/30 03:00:39;;;;;;;10.15;2.50;;;6.60;99.90;;;;;;5071463;28;20137;-70
2022/01/30 03:03:06;;;;;;;8.48;1.67;;;6.70;99.90;;;;;;5071595;28;20503;-69
2022/01/30 03:05:33;;;;;;;11.00;1.50;;;6.60;99.90;;;;;;5071337;28;20487;-70
2022/01/30 03:07:59;;;;;;;7.32;1.40;;;6.40;99.90;;;;;;5071400;28;20053;-69
2022/01/30 03:10:28;;;;;;;11.40;1.98;;;6.50;99.90;;;;;;5071560;28;20485;-70
2022/01/30 03:12:55;;;;;;;8.15;1.45;;;6.50;99.90;;;;;;5071528;28;20548;-69
2022/01/30 03:15:21;;;;;;;8.52;1.83;;;6.60;99.90;;;;;;5071190;28;20463;-69
2022/01/30 03:17:48;;;;;;;12.30;2.03;;;6.50;99.90;;;;;;5071361;28;20048;-70
2022/01/30 03:20:15;;;;;;;7.78;1.83;;;6.40;99.90;;;;;;5071658;28;20052;-69
2022/01/30 03:22:42;;;;;;;7.47;1.80;;;6.40;99.90;;;;;;5071239;28;20127;-69
2022/01/30 03:25:09;;;;;;;13.45;2.75;;;6.40;99.90;;;;;;5071181;28;20088;-70
2022/01/30 03:27:37;;;;;;;10.23;1.90;;;6.30;99.90;;;;;;5071493;28;20103;-69
2022/01/30 03:30:07;;;;;;;14.05;3.03;;;6.20;99.90;;;;;;5071212;28;20049;-69
2022/01/30 03:32:35;;;;;;;11.18;1.75;;;6.20;99.90;;;;;;5071563;28;20413;-70
2022/01/30 03:35:02;;;;;;;11.70;2.17;;;6.10;99.90;;;;;;5071052;28;20131;-69
2022/01/30 03:37:29;;;;;;;6.00;1.77;;;6.20;99.90;;;;;;5071393;28;20083;-70
2022/01/30 03:39:56;;;;;;;19.33;2.40;;;6.40;99.90;;;;;;5071198;28;20144;-70
2022/01/30 03:42:23;;;;;;;6.55;1.63;;;6.20;99.90;;;;;;5071418;28;20531;-70
2022/01/30 03:44:51;;;;;;;14.55;3.20;;;6.30;99.90;;;;;;5071253;28;20131;-69
2022/01/30 03:47:18;;;;;;;13.27;2.85;;;6.20;99.90;;;;;;5071283;28;20210;-70
2022/01/30 03:49:45;;;;;;;12.07;2.35;;;6.30;99.90;;;;;;5070860;28;20087;-70
2022/01/30 03:52:12;;;;;;;10.35;2.10;;;6.30;99.90;;;;;;5071248;28;20408;-70
2022/01/30 03:54:39;;;;;;;11.82;2.25;;;6.20;99.90;;;;;;5071179;28;20131;-70
2022/01/30 03:57:06;;;;;;;10.45;2.30;;;6.10;99.90;;;;;;5071117;28;20139;-70
2022/01/30 03:59:33;;;;;;;11.02;2.45;;;6.20;99.90;;;;;;5071248;28;20140;-70
2022/01/30 04:02:01;;;;;;;10.10;2.33;;;6.10;99.90;;;;;;5071377;28;20136;-70
2022/01/30 04:04:29;;;;;;;11.88;2.33;;;6.00;99.90;;;;;;5071051;28;20083;-70
2022/01/30 04:06:58;;;;;;;16.40;2.38;;;6.00;99.90;;;;;;5088051;22;20131;-72
2022/01/30 04:09:25;;;;;;;16.80;2.88;;;6.10;99.90;;;;;;5092372;28;20407;-72
2022/01/30 04:11:52;;;;;;;13.48;2.35;;;6.20;99.90;;;;;;5094866;28;20138;-72
2022/01/30 04:14:20;;;;;;;11.73;2.30;;;6.30;99.90;;;;;;5094850;28;20530;-69
2022/01/30 04:16:47;;;;;;;17.85;2.70;;;6.20;99.90;;;;;;5094777;28;20087;-70
2022/01/30 04:19:16;;;;;;;11.57;2.83;;;6.20;99.90;;;;;;5094615;28;20136;-70
2022/01/30 04:21:43;;;;;;;11.60;2.72;;;6.00;99.90;;;;;;5094690;28;20139;-69
2022/01/30 04:24:10;;;;;;;13.68;2.47;;;6.10;99.90;;;;;;5094612;28;20048;-70
2022/01/30 04:26:37;;;;;;;12.07;1.70;;;6.20;99.90;;;;;;5094526;28;20562;-70
2022/01/30 04:29:04;;;;;;;19.90;3.13;;;6.20;99.90;;;;;;5094604;28;20044;-70
2022/01/30 04:31:32;;;;;;;14.90;3.45;;;6.10;99.90;;;;;;5094481;28;20394;-70
2022/01/30 04:33:59;;;;;;;15.85;2.67;;;6.10;99.90;;;;;;5094585;28;20060;-70
2022/01/30 04:36:33;;;;;;;14.52;4.32;;;6.00;99.90;;;;;;5094396;28;20147;-70
2022/01/30 04:39:08;;;;;;;9.40;2.35;;;6.00;99.90;;;;;;5094635;28;20097;-70
2022/01/30 04:42:18;;;;;;;21.42;3.17;;;6.00;99.90;;;;;;5094510;28;20048;-70
2022/01/30 04:53:26;;;;;;;17.55;4.13;;;5.80;99.90;;;;;;5082705;28;20471;-70
2022/01/30 04:58:51;;;;;;;16.70;3.78;;;5.90;99.90;;;;;;5095840;28;20515;-70
2022/01/30 05:01:23;;;;;;;18.67;2.30;;;5.80;99.90;;;;;;5097218;28;20044;-70
2022/01/30 05:03:59;;;;;;;14.95;2.90;;;5.90;99.90;;;;;;5097171;28;20061;-70
2022/01/30 05:06:41;;;;;;;18.40;3.13;;;5.70;99.90;;;;;;5096615;28;20147;-70
2022/01/30 05:09:10;;;;;;;14.05;2.72;;;5.80;99.90;;;;;;5107142;28;20055;-70
2022/01/30 05:11:37;;;;;;;13.30;2.42;;;5.80;99.90;;;;;;5098200;28;20511;-70
2022/01/30 05:14:05;;;;;;;19.58;3.17;;;5.80;99.90;;;;;;5095843;28;20079;-70
2022/01/30 05:16:34;;;;;;;21.85;3.47;;;5.70;99.90;;;;;;5097582;28;20047;-70
2022/01/30 05:19:02;;;;;;;13.85;2.47;;;5.80;99.90;;;;;;5098274;28;20492;-70
2022/01/30 05:21:29;;;;;;;8.77;2.20;;;5.80;99.90;;;;;;5096606;28;20131;-70
2022/01/30 05:23:56;;;;;;;11.27;2.38;;;5.80;99.90;;;;;;5098010;28;20112;-70
2022/01/30 05:26:27;;;;;;;10.32;2.10;;;5.80;99.90;;;;;;5096853;28;20059;-70
2022/01/30 05:28:54;;;;;;;10.88;2.70;;;5.80;99.90;;;;;;5096710;28;20143;-70
2022/01/30 05:31:22;;;;;;;11.70;2.50;;;5.80;99.90;;;;;;5097055;28;20139;-71
2022/01/30 05:33:49;;;;;;;16.45;2.92;;;5.70;99.90;;;;;;5097066;28;20079;-70
2022/01/30 05:36:16;;;;;;;11.13;2.50;;;5.80;99.90;;;;;;5096852;28;20135;-70
2022/01/30 05:38:44;;;;;;;12.10;2.83;;;5.90;99.90;;;;;;5096131;28;20091;-70
2022/01/30 05:41:11;;;;;;;15.60;3.05;;;5.70;99.90;;;;;;5095942;28;20106;-70
2022/01/30 05:43:41;;;;;;;12.38;2.83;;;5.80;99.90;;;;;;5094442;28;20542;-70
2022/01/30 05:46:13;;;;;;;13.55;2.58;;;5.80;99.90;;;;;;5094364;28;20498;-70
2022/01/30 05:48:40;;;;;;;20.02;3.78;;;5.90;99.90;;;;;;5094335;28;20052;-70
2022/01/30 05:51:07;;;;;;;11.98;2.65;;;5.70;99.90;;;;;;5093383;28;20052;-70
2022/01/30 05:53:34;;;;;;;14.68;2.50;;;5.70;99.90;;;;;;5093209;28;20135;-70
2022/01/30 05:56:02;;;;;;;8.90;2.25;;;5.70;99.90;;;;;;5092949;28;20087;-70
2022/01/30 05:58:29;;;;;;;18.90;4.00;;;5.70;99.90;;;;;;5093104;28;20480;-70
2022/01/30 06:00:57;;;;;;;17.63;3.30;;;5.70;99.90;;;;;;5093234;28;20534;-70
2022/01/30 06:03:24;;;;;;;21.63;3.03;;;5.70;99.90;;;;;;5092884;28;20126;-70
2022/01/30 06:05:51;;;;;;;13.27;2.92;;;5.60;99.90;;;;;;5092824;28;20237;-70
2022/01/30 06:08:38;;;;;;;13.55;2.45;;;5.60;99.90;;;;;;5092936;28;20044;-70
2022/01/30 06:11:05;;;;;;;20.42;2.80;;;5.60;99.90;;;;;;5092402;28;20044;-70
2022/01/30 06:13:32;;;;;;;11.60;3.20;;;5.50;99.90;;;;;;5092675;28;20460;-70
2022/01/30 06:16:01;;;;;;;17.83;3.78;;;5.50;99.90;;;;;;5092309;28;20135;-70
2022/01/30 06:18:28;;;;;;;16.10;3.08;;;5.50;99.90;;;;;;5092720;28;20071;-70
2022/01/30 06:20:55;;;;;;;16.40;2.90;;;5.50;99.90;;;;;;5092574;28;20126;-70
2022/01/30 06:23:26;;;;;;;16.00;3.30;;;5.50;99.90;;;;;;5092433;28;20087;-71
2022/01/30 06:25:53;;;;;;;23.08;3.72;;;5.40;99.90;;;;;;5092224;28;20105;-71
2022/01/30 06:28:20;;;;;;;9.77;2.10;;;5.50;99.90;;;;;;5092327;28;20058;-70
2022/01/30 06:30:47;;;;;;;14.73;2.65;;;5.40;99.90;;;;;;5091694;28;20139;-70
2022/01/30 06:33:16;;;;;;;15.35;2.85;;;5.40;99.90;;;;;;5092064;28;20126;-70
2022/01/30 06:35:43;;;;;;;16.02;2.80;;;5.40;99.90;;;;;;5092121;28;20135;-71
2022/01/30 06:38:09;;;;;;;20.48;3.80;;;5.40;99.90;;;;;;5092130;28;20495;-71
2022/01/30 06:40:37;;;;;;;16.17;2.97;;;5.40;99.90;;;;;;5092058;28;20139;-70
2022/01/30 06:43:04;;;;;;;11.95;2.47;;;5.40;99.90;;;;;;5092103;28;20547;-70
2022/01/30 06:45:31;;;;;;;13.10;2.55;;;5.40;99.90;;;;;;5092272;28;20052;-70
2022/01/30 06:47:58;;;;;;;12.15;2.58;;;5.30;99.90;;;;;;5092066;28;20503;-70
2022/01/30 06:50:26;;;;;;;15.38;2.70;;;5.40;99.90;;;;;;5092055;28;20139;-70
2022/01/30 06:52:53;;;;;;;20.80;3.63;;;5.40;99.90;;;;;;5091882;28;20488;-70
2022/01/30 06:55:20;;;;;;;16.73;3.17;;;5.40;99.90;;;;;;5091881;28;20131;-70
2022/01/30 06:57:48;;;;;;;13.00;2.42;;;5.40;99.90;;;;;;5092023;28;20130;-70
2022/01/30 07:00:15;;;;;;;16.13;2.97;;;5.30;99.90;;;;;;5091986;28;20135;-70
2022/01/30 07:02:42;;;;;;;14.80;2.70;;;5.40;99.90;;;;;;5092024;28;20134;-70
2022/01/30 07:05:10;;;;;;;18.02;3.50;;;5.40;99.90;;;;;;5092239;28;20079;-70
2022/01/30 07:07:38;;;;;;;16.20;2.40;;;5.40;99.90;;;;;;5094104;28;20079;-70
2022/01/30 07:10:07;;;;;;;13.55;2.40;;;5.40;99.90;;;;;;5092804;28;20080;-70
2022/01/30 07:12:34;;;;;;;10.23;2.53;;;5.40;99.90;;;;;;5093564;28;20051;-69
2022/01/30 07:15:01;;;;;;;13.10;2.97;;;5.40;99.90;;;;;;5094612;28;20202;-70
2022/01/30 07:17:28;;;;;;;17.80;2.92;;;5.30;99.90;;;;;;5094631;28;20048;-70
2022/01/30 07:19:55;;;;;;;12.38;3.08;;;5.30;99.90;;;;;;5092600;28;20107;-70
2022/01/30 07:22:21;;;;;;;15.40;2.65;;;5.30;99.90;;;;;;5092010;28;20131;-70
2022/01/30 07:24:50;;;;;;;18.73;2.70;;;5.30;99.90;;;;;;5092266;28;20083;-70
2022/01/30 07:27:17;;;;;;;17.70;3.17;;;5.30;99.90;;;;;;5092399;28;20131;-70
2022/01/30 07:29:44;;;;;;;10.05;2.10;;;5.30;99.90;;;;;;5092145;28;20123;-70
2022/01/30 07:32:10;;;;;;;21.48;2.97;;;5.30;99.90;;;;;;5091923;28;20059;-70
2022/01/30 07:34:37;;;;;;;15.13;2.78;;;5.30;99.90;;;;;;5091870;28;20071;-70
2022/01/30 07:37:05;;;;;;;14.70;3.55;;;5.30;99.90;;;;;;5091834;28;20091;-70
2022/01/30 07:39:32;;;;;;;18.52;2.47;;;5.30;99.90;;;;;;5092122;28;20110;-70
2022/01/30 07:42:00;;;;;;;12.27;2.50;;;5.30;99.90;;;;;;5095149;28;20094;-70
2022/01/30 07:44:27;;;;;;;24.10;4.00;;;5.20;99.90;;;;;;5099798;28;20448;-70
2022/01/30 07:46:54;;;;;;;15.05;3.22;;;5.30;99.90;;;;;;5098821;28;20090;-70
2022/01/30 07:49:22;;;;;;;19.92;2.97;;;5.30;99.90;;;;;;5095845;28;20083;-70
2022/01/30 07:51:49;;;;;;;13.30;2.42;;;5.30;99.90;;;;;;5096218;28;20098;-70
2022/01/30 07:54:16;;;;;;;14.95;2.80;;;5.30;99.90;;;;;;5096527;28;20148;-70
2022/01/30 07:56:43;;;;;;;14.30;2.90;;;5.30;99.90;;;;;;5099573;28;20086;-70
2022/01/30 07:59:11;;;;;;;20.50;2.70;;;5.40;99.90;;;;;;5099051;28;20503;-70
2022/01/30 08:01:38;;;;;;;18.10;3.47;;;5.30;99.90;;;;;;5099247;28;20094;-71
2022/01/30 08:04:06;;;;;;;28.23;4.53;;;5.40;99.90;;;;;;5096240;28;20055;-70
2022/01/30 08:06:33;;;;;;;16.83;3.30;;;5.40;99.90;;;;;;5095182;28;20496;-70
2022/01/30 08:09:00;;;;;;;10.23;2.78;;;5.40;99.90;;;;;;5095074;28;20079;-70
2022/01/30 08:11:27;;;;;;;18.02;3.20;;;5.40;99.90;;;;;;5095817;28;20134;-70
2022/01/30 08:13:54;;;;;;;11.48;2.85;;;5.50;99.90;;;;;;5095178;28;20563;-70
2022/01/30 08:16:23;;;;;;;18.70;3.38;;;5.50;99.90;;;;;;5095263;28;20088;-70
2022/01/30 08:18:50;;;;;;;13.45;2.50;;;5.60;99.90;;;;;;5095106;28;20052;-72
2022/01/30 08:21:17;;;;;;;27.65;3.17;;;5.50;99.90;;;;;;5094629;28;20483;-70
2022/01/30 08:23:44;;;;;;;19.65;4.05;;;5.60;99.90;;;;;;5094601;28;20079;-70
2022/01/30 08:26:11;;;;;;;14.18;4.38;;;5.60;99.90;;;;;;5094616;28;20135;-70
2022/01/30 08:28:38;;;;;;;19.15;2.78;;;5.60;99.90;;;;;;5094549;28;20091;-70
2022/01/30 08:31:05;;;;;;;19.63;4.45;;;5.70;99.90;;;;;;5094361;28;20138;-70
2022/01/30 08:33:33;;;;;;;13.48;2.47;;;5.70;99.90;;;;;;5094193;28;20559;-71
2022/01/30 08:36:00;;;;;;;15.80;2.50;;;5.70;99.90;;;;;;5094187;28;20139;-70
2022/01/30 08:38:27;;;;;;;9.93;1.95;;;5.70;99.90;;;;;;5094434;28;20131;-70
2022/01/30 08:40:54;;;;;;;12.00;3.17;;;5.70;99.90;;;;;;5094183;28;20568;-70
2022/01/30 08:43:31;;;;;;;17.83;2.55;;;5.70;99.90;;;;;;5094300;28;20587;-70
2022/01/30 08:45:59;;;;;;;14.43;2.30;;;5.80;99.90;;;;;;5094189;28;20516;-70
2022/01/30 08:48:27;;;;;;;23.27;4.10;;;5.80;99.90;;;;;;5094035;28;20064;-70
2022/01/30 08:50:57;;;;;;;15.10;2.70;;;5.70;99.90;;;;;;5094222;28;20058;-70
2022/01/30 08:53:24;;;;;;;16.35;2.75;;;5.70;99.90;;;;;;5094126;28;20087;-70
2022/01/30 08:55:51;;;;;;;20.92;3.10;;;5.70;99.90;;;;;;5093193;28;20044;-70
2022/01/30 08:58:18;;;;;;;15.43;2.70;;;5.60;99.90;;;;;;5093837;28;20048;-70
2022/01/30 09:00:46;;;;;;;18.15;4.47;;;5.60;99.90;;;;;;5093960;28;20443;-70
2022/01/30 09:03:14;;;;;;;14.85;2.35;;;5.60;99.90;;;;;;5093850;28;20135;-69
2022/01/30 09:05:41;;;;;;;11.55;2.78;;;5.60;99.90;;;;;;5094072;28;20134;-69
2022/01/30 09:08:09;;;;;;;15.40;2.92;;;5.60;99.90;;;;;;5093646;28;20479;-69
2022/01/30 09:10:38;;;;;;;12.50;2.63;;;5.60;99.90;;;;;;5093525;28;20123;-69
2022/01/30 09:13:06;;;;;;;30.17;3.75;;;5.60;99.90;;;;;;5093197;28;20492;-69
2022/01/30 09:15:38;;;;;;;14.85;3.13;;;5.60;99.90;;;;;;5093358;28;20567;-69
2022/01/30 09:18:08;;;;;;;8.70;2.38;;;5.70;99.90;;;;;;5093447;28;20059;-69
2022/01/30 09:20:35;;;;;;;11.18;3.33;;;5.70;99.90;;;;;;5093375;28;20052;-69
2022/01/30 09:23:02;;;;;;;15.02;2.67;;;5.70;99.90;;;;;;5093279;28;20563;-69
2022/01/30 09:25:32;;;;;;;12.32;2.38;;;5.70;99.90;;;;;;5093284;28;20482;-69
2022/01/30 09:27:59;;;;;;;19.42;3.28;;;5.80;99.90;;;;;;5093501;28;20428;-69
2022/01/30 09:30:26;;;;;;;15.10;2.35;;;5.80;99.90;;;;;;5093206;28;20099;-69
2022/01/30 09:32:53;;;;;;;12.13;2.28;;;5.80;99.90;;;;;;5093016;28;20142;-69
2022/01/30 09:35:20;;;;;;;14.50;3.25;;;5.80;99.90;;;;;;5092906;28;20123;-69
2022/01/30 09:37:47;;;;;;;15.40;2.47;;;6.50;99.90;;;;;;5093471;28;20135;-69
2022/01/30 09:40:17;;;;;;;9.77;1.85;;;6.00;99.90;;;;;;5093001;28;20139;-69
2022/01/30 09:42:46;;;;;;;10.25;2.78;;;5.90;99.90;;;;;;5092999;28;20044;-69
2022/01/30 09:45:14;;;;;;;13.13;3.30;;;6.00;99.90;;;;;;5093081;28;20138;-69
2022/01/30 09:47:42;;;;;;;9.02;2.22;;;6.70;99.90;;;;;;5093608;28;20048;-70
2022/01/30 09:50:10;;;;;;;14.68;2.95;;;6.30;99.90;;;;;;5092736;28;20134;-69
2022/01/30 09:52:37;;;;;;;8.02;2.38;;;6.30;99.90;;;;;;5092393;28;20147;-69
2022/01/30 09:55:06;;;;;;;11.02;3.05;;;6.10;99.90;;;;;;5092582;28;20048;-69
2022/01/30 09:57:33;;;;;;;10.25;2.65;;;6.10;99.90;;;;;;5093945;28;20416;-70
2022/01/30 10:00:03;;;;;;;9.35;2.42;;;6.10;99.90;;;;;;5092752;28;20087;-70
2022/01/30 10:02:30;;;;;;;11.98;2.88;;;6.20;99.90;;;;;;5092726;28;20056;-70
2022/01/30 10:04:57;;;;;;;10.23;2.25;;;6.90;99.90;;;;;;5092141;28;20419;-70
2022/01/30 10:07:38;;;;;;;18.55;4.28;;;6.80;99.90;;;;;;5181863;22;20041;-75
2022/01/30 10:10:09;;;;;;;19.23;2.75;;;6.40;99.90;;;;;;5075363;28;20116;-76
2022/01/30 10:12:36;;;;;;;17.02;2.70;;;6.40;99.90;;;;;;5075032;28;20128;-75
2022/01/30 10:15:07;;;;;;;12.30;2.25;;;6.40;99.90;;;;;;5075505;28;20079;-74
2022/01/30 10:17:36;;;;;;;9.70;3.20;;;6.40;99.90;;;;;;5074827;28;20084;-75
2022/01/30 10:20:08;;;;;;;15.52;2.60;;;6.30;99.90;;;;;;5074572;28;20135;-75
2022/01/30 10:22:38;;;;;;;10.73;2.53;;;6.20;99.90;;;;;;5074023;28;20487;-75
2022/01/30 10:25:05;;;;;;;12.05;2.50;;;6.30;99.90;;;;;;5073632;28;20138;-74
2022/01/30 10:27:33;;;;;;;13.93;3.75;;;6.30;99.90;;;;;;5074860;28;20045;-74
2022/01/30 10:30:04;;;;;;;13.55;2.78;;;6.40;99.90;;;;;;5073975;28;20052;-75
2022/01/30 10:32:33;;;;;;;12.43;2.40;;;6.40;99.90;;;;;;5074278;28;20127;-75
2022/01/30 10:35:02;;;;;;;9.65;2.33;;;6.20;99.90;;;;;;5074215;28;20127;-75
2022/01/30 10:37:29;;;;;;;12.43;2.63;;;6.20;99.90;;;;;;5074738;28;20056;-74
2022/01/30 10:40:00;;;;;;;5.97;2.05;;;6.20;99.90;;;;;;5074471;28;20079;-74
2022/01/30 10:42:39;;;;;;;9.85;2.47;;;6.20;99.90;;;;;;5073820;28;20480;-74
2022/01/30 10:45:09;;;;;;;11.27;2.40;;;6.40;99.90;;;;;;5074726;28;20066;-75
2022/01/30 10:47:38;;;;;;;19.65;3.83;;;6.30;99.90;;;;;;5074408;28;20127;-75
2022/01/30 10:50:10;;;;;;;13.13;2.70;;;6.20;99.90;;;;;;5074563;28;20103;-75
2022/01/30 10:52:58;;;;;;;8.13;2.00;;;6.20;99.90;;;;;;5074638;28;20091;-75
2022/01/30 10:55:39;;;;;;;9.25;2.50;;;6.30;99.90;;;;;;5074268;28;20512;-75
2022/01/30 10:58:08;;;;;;;14.40;2.20;;;6.80;99.90;;;;;;5074078;28;20053;-75
2022/01/30 11:00:43;;;;;;;11.07;2.15;;;6.40;99.90;;;;;;5074905;28;20190;-75
2022/01/30 11:03:37;;;;;;;10.30;2.63;;;6.40;99.90;;;;;;5073822;28;20139;-75
2022/01/30 11:06:07;;;;;;;9.73;2.30;;;6.50;99.90;;;;;;5073573;28;20075;-76
2022/01/30 11:08:35;;;;;;;15.77;3.35;;;6.40;99.90;;;;;;5073397;28;20389;-75
2022/01/30 11:11:11;;;;;;;13.18;2.35;;;6.40;99.90;;;;;;5074239;28;20070;-75
2022/01/30 11:14:03;;;;;;;15.63;2.60;;;6.30;99.90;;;;;;5074712;28;20060;-74
2022/01/30 11:19:18;;;;;;;12.75;2.10;;;6.10;99.90;;;;;;5078243;28;20102;-75
2022/01/30 11:21:49;;;;;;;15.50;2.47;;;6.20;99.90;;;;;;5078395;28;20135;-72
2022/01/30 11:24:17;;;;;;;12.10;2.40;;;6.30;99.90;;;;;;5077632;28;20044;-73
2022/01/30 11:26:46;;;;;;;8.80;2.20;;;6.30;99.90;;;;;;5077650;28;20272;-73
2022/01/30 11:29:14;;;;;;;14.15;2.67;;;6.20;99.90;;;;;;5078571;28;20106;-74
2022/01/30 11:31:41;;;;;;;12.25;2.42;;;6.20;99.90;;;;;;5078210;28;20563;-74
2022/01/30 11:34:08;;;;;;;10.05;2.08;;;6.20;99.90;;;;;;5072401;28;20108;-74
2022/01/30 11:36:40;;;;;;;12.55;2.08;;;6.20;99.90;;;;;;5077407;28;20106;-75
2022/01/30 11:39:07;;;;;;;16.42;2.47;;;6.20;99.90;;;;;;5078190;28;20127;-75
2022/01/30 11:41:35;;;;;;;10.40;2.40;;;6.20;99.90;;;;;;5077844;28;20132;-74
2022/01/30 11:44:32;;;;;;;19.27;3.42;;;6.20;99.90;;;;;;5069253;28;20073;-74
2022/01/30 11:47:20;;;;;;;10.57;2.58;;;6.60;99.90;;;;;;4996337;28;20481;-76
2022/01/30 11:50:04;;;;;;;11.88;2.50;;;6.60;99.90;;;;;;5070656;28;20464;-74
2022/01/30 11:53:00;;;;;;;13.35;2.38;;;6.50;99.90;;;;;;5074539;28;20131;-74
2022/01/30 11:55:49;;;;;;;14.15;2.97;;;7.80;99.90;;;;;;5059089;28;20049;-75
2022/01/30 11:58:42;;;;;;;16.35;2.80;;;7.00;99.90;;;;;;5059025;28;20049;-75
2022/01/30 12:01:36;;;;;;;15.65;3.13;;;7.20;99.90;;;;;;5059260;28;20081;-76
2022/01/30 12:04:12;;;;;;;18.13;2.67;;;8.20;99.90;;;;;;5058603;28;20060;-74
2022/01/30 12:06:40;;;;;;;20.13;3.95;;;8.50;99.90;;;;;;5057577;28;20059;-76
2022/01/30 12:09:29;;;;;;;20.80;3.20;;;9.30;99.90;;;;;;5056307;28;20135;-74
2022/01/30 12:12:03;;;;;;;12.65;2.22;;;10.00;99.90;;;;;;5056160;28;20045;-74
2022/01/30 12:14:57;;;;;;;17.98;2.78;;;8.10;99.90;;;;;;5056564;28;20052;-77
2022/01/30 12:17:49;;;;;;;11.30;2.40;;;11.70;99.90;;;;;;5057157;28;20084;-74
2022/01/30 12:20:23;;;;;;;16.48;3.17;;;8.60;99.90;;;;;;5057355;28;20112;-74
2022/01/30 12:22:51;;;;;;;9.65;2.55;;;8.70;99.90;;;;;;5056821;28;20045;-75
2022/01/30 12:25:37;;;;;;;21.55;3.45;;;10.10;99.90;;;;;;5056429;28;20501;-74
2022/01/30 12:28:06;;;;;;;11.85;2.20;;;9.30;99.90;;;;;;5056096;28;20485;-75
2022/01/30 12:30:52;;;;;;;15.43;2.90;;;7.80;99.90;;;;;;5056647;28;20049;-75
2022/01/30 12:33:36;;;;;;;18.05;3.00;;;7.40;99.90;;;;;;5059182;28;20480;-75
2022/01/30 12:36:12;;;;;;;14.95;3.05;;;7.30;99.90;;;;;;5058788;28;20057;-75
2022/01/30 12:38:40;;;;;;;20.50;4.10;;;6.80;99.90;;;;;;5058222;28;20132;-75
2022/01/30 12:41:16;;;;;;;13.45;3.00;;;6.90;99.90;;;;;;5058068;28;20060;-75
2022/01/30 12:43:43;;;;;;;18.75;2.85;;;7.20;99.90;;;;;;5057163;28;20088;-74
2022/01/30 12:46:11;;;;;;;15.85;3.50;;;7.00;99.90;;;;;;5057407;28;20120;-75
2022/01/30 12:48:38;;;;;;;11.27;2.53;;;6.90;99.90;;;;;;5057891;28;20186;-74
2022/01/30 12:51:12;;;;;;;20.33;3.35;;;6.70;99.90;;;;;;5056920;28;20088;-75
2022/01/30 12:53:41;;;;;;;10.95;2.58;;;6.60;99.90;;;;;;5056943;28;20045;-74
2022/01/30 12:56:09;;;;;;;12.52;2.55;;;6.60;99.90;;;;;;5056302;28;20493;-74
2022/01/30 12:58:44;;;;;;;17.95;3.60;;;6.60;99.90;;;;;;5056385;28;20131;-76
2022/01/30 13:01:12;;;;;;;14.63;3.05;;;6.60;99.90;;;;;;5057925;28;20059;-74
2022/01/30 13:03:39;;;;;;;16.63;2.92;;;6.70;99.90;;;;;;5057469;28;20049;-74
2022/01/30 13:06:06;;;;;;;17.85;3.40;;;6.60;99.90;;;;;;5057097;28;20507;-74
2022/01/30 13:08:51;;;;;;;16.10;2.92;;;6.60;99.90;;;;;;5058236;28;20049;-73
2022/01/30 13:11:21;;;;;;;12.10;2.90;;;6.60;99.90;;;;;;5057442;28;20053;-74
2022/01/30 13:13:58;;;;;;;17.60;3.42;;;6.70;99.90;;;;;;5056376;28;20552;-76
2022/01/30 13:16:28;;;;;;;15.10;2.83;;;6.60;99.90;;;;;;5057074;28;20521;-74
2022/01/30 13:18:55;;;;;;;30.67;4.22;;;6.50;99.90;;;;;;5057332;28;20053;-75
2022/01/30 13:21:23;;;;;;;22.10;3.55;;;6.40;99.90;;;;;;5057863;28;20135;-73
2022/01/30 13:23:51;;;;;;;24.60;4.95;;;6.40;99.90;;;;;;5056968;28;20045;-74
2022/01/30 13:26:32;;;;;;;20.67;3.35;;;6.40;99.90;;;;;;5057092;28;20136;-74
2022/01/30 13:29:01;;;;;;;26.55;4.50;;;6.30;99.90;;;;;;5057783;28;20152;-75
2022/01/30 13:31:31;;;;;;;14.50;3.65;;;6.30;99.90;;;;;;5056940;28;20085;-75
2022/01/30 13:34:26;;;;;;;20.65;3.25;;;6.20;99.90;;;;;;5056828;28;20060;-74
2022/01/30 13:37:02;;;;;;;17.50;3.30;;;6.20;99.90;;;;;;4999427;28;20103;-74